createdAt,value
2023-01-22T00:01:08.873Z,76.20
2023-01-22T00:03:37.099Z,76.30
2023-01-22T00:06:05.669Z,76.40
2023-01-22T00:08:33.281Z,76.40
2023-01-22T00:11:00.449Z,76.30
2023-01-22T00:13:28.473Z,76.30
2023-01-22T00:15:58.350Z,76.40
2023-01-22T00:18:26.335Z,76.40
2023-01-22T00:20:55.158Z,76.40
2023-01-22T00:23:22.818Z,76.40
2023-01-22T00:25:50.451Z,76.40
2023-01-22T00:28:17.465Z,77.20
2023-01-22T00:30:44.674Z,76.50
2023-01-22T00:33:11.863Z,76.50
2023-01-22T00:35:39.604Z,76.50
2023-01-22T00:38:07.053Z,76.50
2023-01-22T00:40:34.444Z,76.60
2023-01-22T00:43:01.419Z,76.60
2023-01-22T00:45:28.491Z,77.40
2023-01-22T00:47:55.479Z,76.50
2023-01-22T00:50:22.534Z,76.50
2023-01-22T00:52:49.564Z,76.60
2023-01-22T00:55:16.709Z,76.50
2023-01-22T00:57:43.819Z,76.50
2023-01-22T01:00:14.808Z,76.50
2023-01-22T01:03:00.950Z,76.50
2023-01-22T01:05:28.250Z,76.50
2023-01-22T01:07:55.133Z,76.40
2023-01-22T01:10:22.352Z,76.30
2023-01-22T01:12:49.496Z,76.50
2023-01-22T01:15:19.974Z,76.40
2023-01-22T01:17:46.882Z,76.30
2023-01-22T01:20:14.130Z,76.50
2023-01-22T01:22:41.380Z,76.50
2023-01-22T01:25:08.423Z,76.50
2023-01-22T01:27:35.514Z,76.40
2023-01-22T01:30:02.524Z,76.40
2023-01-22T01:32:29.454Z,76.40
2023-01-22T01:34:56.390Z,76.40
2023-01-22T01:37:23.290Z,76.40
2023-01-22T01:39:52.504Z,76.40
2023-01-22T01:42:36.193Z,76.40
2023-01-22T01:45:32.429Z,76.40
2023-01-22T01:48:36.079Z,76.40
2023-01-22T01:51:07.891Z,76.40
2023-01-22T01:53:36.120Z,76.40
2023-01-22T01:56:12.680Z,76.40
2023-01-22T01:58:42.895Z,76.30
2023-01-22T02:01:15.297Z,76.30
2023-01-22T02:03:43.324Z,76.40
2023-01-22T02:06:17.125Z,76.30
2023-01-22T02:08:48.382Z,76.30
2023-01-22T02:11:18.364Z,76.40
2023-01-22T02:14:01.408Z,76.40
2023-01-22T02:16:28.597Z,76.40
2023-01-22T02:18:55.778Z,76.40
2023-01-22T02:21:43.645Z,76.40
2023-01-22T02:24:17.504Z,76.40
2023-01-22T02:26:45.845Z,76.50
2023-01-22T02:29:17.515Z,76.50
2023-01-22T02:31:44.757Z,76.60
2023-01-22T02:34:12.280Z,76.60
2023-01-22T02:36:40.293Z,76.60
2023-01-22T02:39:07.828Z,76.60
2023-01-22T02:41:34.770Z,76.50
2023-01-22T02:44:01.856Z,76.50
2023-01-22T02:46:30.337Z,76.60
2023-01-22T02:48:57.361Z,76.60
2023-01-22T02:51:26.492Z,76.60
2023-01-22T02:53:54.198Z,76.60
2023-01-22T02:56:22.365Z,76.50
2023-01-22T02:58:50.006Z,76.60
2023-01-22T03:01:23.809Z,76.50
2023-01-22T03:04:01.506Z,76.40
2023-01-22T03:06:29.960Z,76.50
2023-01-22T03:09:02.482Z,77.30
2023-01-22T03:11:38.663Z,76.40
2023-01-22T03:14:29.782Z,76.50
2023-01-22T03:17:17.118Z,76.50
2023-01-22T03:20:04.232Z,76.50
2023-01-22T03:22:34.394Z,76.40
2023-01-22T03:25:03.229Z,76.50
2023-01-22T03:27:32.577Z,76.30
2023-01-22T03:30:00.417Z,76.40
2023-01-22T03:32:34.390Z,76.30
2023-01-22T03:35:03.289Z,76.40
2023-01-22T03:37:45.029Z,76.50
2023-01-22T03:40:12.426Z,77.30
2023-01-22T03:42:40.854Z,76.40
2023-01-22T03:45:12.487Z,76.40
2023-01-22T03:47:41.813Z,76.40
2023-01-22T03:50:23.347Z,76.40
2023-01-22T03:52:51.330Z,76.40
2023-01-22T03:55:18.942Z,76.40
2023-01-22T04:02:37.857Z,76.30
2023-01-22T04:05:14.480Z,76.30
2023-01-22T04:07:44.051Z,76.30
2023-01-22T04:10:12.364Z,76.30
2023-01-22T04:12:39.289Z,76.50
2023-01-22T04:15:08.130Z,76.50
2023-01-22T04:17:35.179Z,76.60
2023-01-22T04:20:13.269Z,76.60
2023-01-22T04:22:47.970Z,76.60
2023-01-22T04:25:15.895Z,76.60
2023-01-22T04:27:45.601Z,76.60
2023-01-22T04:30:18.146Z,76.70
2023-01-22T04:32:47.789Z,76.70
2023-01-22T04:35:24.413Z,76.70
2023-01-22T04:37:56.750Z,76.70
2023-01-22T04:40:24.226Z,76.70
2023-01-22T04:42:52.126Z,76.70
2023-01-22T04:45:19.254Z,76.70
2023-01-22T04:47:48.732Z,76.90
2023-01-22T04:50:28.299Z,76.80
2023-01-22T04:52:56.486Z,76.90
2023-01-22T04:55:25.421Z,76.90
2023-01-22T04:58:03.251Z,77.00
2023-01-22T05:00:31.356Z,77.00
2023-01-22T05:03:03.712Z,77.00
2023-01-22T05:05:33.510Z,77.10
2023-01-22T05:08:01.327Z,77.00
2023-01-22T05:10:29.974Z,77.00
2023-01-22T05:12:58.085Z,77.00
2023-01-22T05:15:26.219Z,77.00
2023-01-22T05:17:57.324Z,76.90
2023-01-22T05:20:25.483Z,77.00
2023-01-22T05:22:53.124Z,77.10
2023-01-22T05:25:24.226Z,77.00
2023-01-22T05:27:51.355Z,76.90
2023-01-22T05:30:30.799Z,76.90
2023-01-22T05:33:24.697Z,76.80
2023-01-22T05:36:00.655Z,76.80
2023-01-22T05:38:30.427Z,76.80
2023-01-22T05:40:58.346Z,76.90
2023-01-22T05:43:28.272Z,76.90
2023-01-22T05:46:04.407Z,77.00
2023-01-22T05:48:46.820Z,76.90
2023-01-22T05:51:19.163Z,76.90
2023-01-22T05:53:46.733Z,77.00
2023-01-22T05:56:15.188Z,77.00
2023-01-22T05:58:42.406Z,76.90
2023-01-22T06:01:10.313Z,76.90
2023-01-22T06:03:45.003Z,76.90
2023-01-22T06:06:16.307Z,76.80
2023-01-22T06:08:46.358Z,76.90
2023-01-22T06:11:16.943Z,76.90
2023-01-22T06:13:47.319Z,76.80
2023-01-22T06:16:17.861Z,76.80
2023-01-22T06:19:07.846Z,76.70
2023-01-22T06:21:50.472Z,76.80
2023-01-22T06:24:18.274Z,76.80
2023-01-22T06:26:45.291Z,76.70
2023-01-22T06:29:14.536Z,76.80
2023-01-22T06:31:42.692Z,76.80
2023-01-22T06:34:14.571Z,76.70
2023-01-22T06:36:43.572Z,76.60
2023-01-22T06:39:10.878Z,76.70
2023-01-22T06:41:43.129Z,76.70
2023-01-22T06:44:12.746Z,76.70
2023-01-22T06:46:40.197Z,76.70
2023-01-22T06:49:13.400Z,76.60
2023-01-22T06:51:41.677Z,76.70
2023-01-22T06:54:13.952Z,76.70
2023-01-22T06:56:41.070Z,76.70
2023-01-22T06:59:08.205Z,76.70
2023-01-22T07:01:35.195Z,76.70
2023-01-22T07:04:02.262Z,76.70
2023-01-22T07:06:29.316Z,76.70
2023-01-22T07:08:56.925Z,76.60
2023-01-22T07:11:23.922Z,76.60
2023-01-22T07:13:50.822Z,76.60
2023-01-22T07:16:17.902Z,76.60
2023-01-22T07:18:44.973Z,76.60
2023-01-22T07:21:12.830Z,76.70
2023-01-22T07:23:41.684Z,76.60
2023-01-22T07:26:08.984Z,76.70
2023-01-22T07:28:35.948Z,76.70
2023-01-22T07:31:03.764Z,76.70
2023-01-22T07:33:30.851Z,76.70
2023-01-22T07:35:58.118Z,76.80
2023-01-22T07:38:28.247Z,76.80
2023-01-22T07:41:01.901Z,76.80
2023-01-22T07:43:29.015Z,76.80
2023-01-22T07:45:57.948Z,76.80
2023-01-22T07:48:26.023Z,76.80
2023-01-22T07:50:53.226Z,76.80
2023-01-22T07:53:20.505Z,76.90
2023-01-22T07:55:47.490Z,76.80
2023-01-22T07:58:14.677Z,76.80
2023-01-22T08:00:42.228Z,76.90
2023-01-22T08:03:10.554Z,76.90
2023-01-22T08:05:40.571Z,76.90
2023-01-22T08:08:17.676Z,76.80
2023-01-22T08:10:45.214Z,76.80
2023-01-22T08:13:12.259Z,76.90
2023-01-22T08:15:39.186Z,77.00
2023-01-22T08:18:07.820Z,76.90
2023-01-22T08:20:34.826Z,77.00
2023-01-22T08:23:01.881Z,77.10
2023-01-22T08:25:29.792Z,77.10
2023-01-22T08:27:56.822Z,77.00
2023-01-22T08:30:24.456Z,77.20
2023-01-22T08:32:51.608Z,77.00
2023-01-22T08:35:18.719Z,77.20
2023-01-22T08:37:46.825Z,77.10
2023-01-22T08:40:14.281Z,77.20
2023-01-22T08:42:41.500Z,77.20
2023-01-22T08:45:09.601Z,77.10
2023-01-22T08:47:36.571Z,77.00
2023-01-22T08:50:04.151Z,77.00
2023-01-22T08:52:31.201Z,77.10
2023-01-22T08:54:59.198Z,76.90
2023-01-22T08:57:26.268Z,76.60
2023-01-22T09:00:01.039Z,76.70
2023-01-22T09:02:29.052Z,76.70
2023-01-22T09:04:56.039Z,76.70
2023-01-22T09:07:22.968Z,76.50
2023-01-22T09:09:50.379Z,76.30
2023-01-22T09:12:17.376Z,76.40
2023-01-22T09:14:44.543Z,76.50
2023-01-22T09:17:11.724Z,76.60
2023-01-22T09:19:38.620Z,76.60
2023-01-22T09:22:07.435Z,76.40
2023-01-22T09:24:34.471Z,76.50
2023-01-22T09:27:01.669Z,76.60
2023-01-22T09:29:28.684Z,76.30
2023-01-22T09:31:56.516Z,76.20
2023-01-22T09:34:23.656Z,76.20
2023-01-22T09:36:50.926Z,76.30
2023-01-22T09:39:18.379Z,76.30
2023-01-22T09:41:54.191Z,76.50
2023-01-22T09:44:33.674Z,76.70
2023-01-22T09:47:34.509Z,76.50
2023-01-22T09:50:26.588Z,76.50
2023-01-22T09:52:58.050Z,76.30
2023-01-22T09:55:32.117Z,76.30
2023-01-22T09:58:05.637Z,76.20
2023-01-22T10:00:41.227Z,76.30
2023-01-22T10:03:22.850Z,76.20
2023-01-22T10:05:59.655Z,76.40
2023-01-22T10:08:52.046Z,76.20
2023-01-22T10:11:19.523Z,75.90
2023-01-22T10:13:50.114Z,76.30
2023-01-22T10:16:17.192Z,76.10
2023-01-22T10:18:59.107Z,76.20
2023-01-22T10:21:42.547Z,76.50
2023-01-22T10:24:13.178Z,76.20
2023-01-22T10:26:54.296Z,76.00
2023-01-22T10:29:23.190Z,75.70
2023-01-22T10:31:55.813Z,75.50
2023-01-22T10:34:36.541Z,75.40
2023-01-22T10:37:15.247Z,75.70
2023-01-22T10:39:45.425Z,76.70
2023-01-22T10:42:21.241Z,76.00
2023-01-22T10:44:49.022Z,76.00
2023-01-22T10:47:27.654Z,75.70
2023-01-22T10:50:10.577Z,75.60
2023-01-22T10:52:45.121Z,75.80
2023-01-22T10:55:31.401Z,76.10
2023-01-22T10:58:03.577Z,75.50
2023-01-22T11:00:50.424Z,75.80
2023-01-22T11:03:28.950Z,75.80
2023-01-22T11:06:03.923Z,75.50
2023-01-22T11:08:56.637Z,75.40
2023-01-22T11:12:15.341Z,75.40
2023-01-22T11:14:43.055Z,75.20
2023-01-22T11:17:42.272Z,75.60
2023-01-22T11:20:25.112Z,75.60
2023-01-22T11:23:24.172Z,75.70
2023-01-22T11:26:44.594Z,75.70
2023-01-22T11:30:07.812Z,76.00
2023-01-22T11:33:01.840Z,76.10
2023-01-22T11:35:52.304Z,76.40
2023-01-22T11:38:56.709Z,76.60
2023-01-22T11:42:13.404Z,75.90
2023-01-22T11:45:26.037Z,76.30
2023-01-22T11:48:04.202Z,76.20
2023-01-22T11:51:10.226Z,76.40
2023-01-22T11:54:00.848Z,76.50
2023-01-22T11:56:51.810Z,76.80
2023-01-22T11:59:56.693Z,76.20
2023-01-22T12:02:43.453Z,75.70
2023-01-22T12:05:37.413Z,76.10
2023-01-22T12:08:38.576Z,75.70
2023-01-22T12:11:34.652Z,75.50
2023-01-22T12:14:29.076Z,76.00
2023-01-22T12:17:01.088Z,76.10
2023-01-22T12:19:52.949Z,75.70
2023-01-22T12:22:36.962Z,75.70
2023-01-22T12:25:34.168Z,76.10
2023-01-22T12:28:04.493Z,75.30
2023-01-22T12:30:50.141Z,75.80
2023-01-22T12:33:26.630Z,75.80
2023-01-22T12:35:58.987Z,76.30
2023-01-22T12:38:40.699Z,76.30
2023-01-22T12:41:34.487Z,76.00
2023-01-22T12:44:27.594Z,74.60
2023-01-22T12:47:07.425Z,74.90
2023-01-22T12:49:51.908Z,74.00
2023-01-22T12:52:39.037Z,74.00
2023-01-22T12:55:32.957Z,74.20
2023-01-22T12:58:00.036Z,74.30
2023-01-22T13:00:39.098Z,74.60
2023-01-22T13:03:31.723Z,74.80
2023-01-22T13:06:02.479Z,74.50
2023-01-22T13:08:35.564Z,75.00
2023-01-22T13:11:10.634Z,74.60
2023-01-22T13:13:37.492Z,74.50
2023-01-22T13:16:32.041Z,74.40
2023-01-22T13:19:00.926Z,73.30
2023-01-22T13:21:33.313Z,74.30
2023-01-22T13:24:05.716Z,74.10
2023-01-22T13:26:36.029Z,74.60
2023-01-22T13:29:19.090Z,74.50
2023-01-22T13:31:58.298Z,74.40
2023-01-22T13:34:26.537Z,74.60
2023-01-22T13:36:53.573Z,74.70
2023-01-22T13:39:26.335Z,74.50
2023-01-22T13:41:56.533Z,74.70
2023-01-22T13:44:35.984Z,74.70
2023-01-22T13:47:03.951Z,74.40
2023-01-22T13:49:34.849Z,75.40
2023-01-22T13:52:07.123Z,74.80
2023-01-22T13:54:51.586Z,74.90
2023-01-22T13:57:22.371Z,75.00
2023-01-22T14:00:01.889Z,75.90
2023-01-22T14:02:35.743Z,74.80
2023-01-22T14:05:05.347Z,75.10
2023-01-22T14:07:38.368Z,75.20
2023-01-22T14:10:22.132Z,75.10
2023-01-22T14:13:18.703Z,75.00
2023-01-22T14:16:06.854Z,74.90
2023-01-22T14:18:33.859Z,75.20
2023-01-22T14:21:01.149Z,75.00
2023-01-22T14:23:29.620Z,74.80
2023-01-22T14:25:57.176Z,75.00
2023-01-22T14:28:25.707Z,75.00
2023-01-22T14:30:53.575Z,74.80
2023-01-22T14:33:31.092Z,74.80
2023-01-22T14:35:59.272Z,74.80
2023-01-22T14:38:27.106Z,74.90
2023-01-22T14:40:54.544Z,75.00
2023-01-22T14:43:21.780Z,75.00
2023-01-22T14:45:49.191Z,75.80
2023-01-22T14:48:20.087Z,75.00
2023-01-22T14:50:49.092Z,74.90
2023-01-22T14:53:18.392Z,75.00
2023-01-22T14:55:46.233Z,75.00
2023-01-22T14:58:13.553Z,74.90
2023-01-22T15:00:40.956Z,75.00
2023-01-22T15:03:08.534Z,75.00
2023-01-22T15:05:35.922Z,75.00
2023-01-22T15:08:03.308Z,75.00
2023-01-22T15:10:30.484Z,75.10
2023-01-22T15:12:57.529Z,75.10
2023-01-22T15:15:27.112Z,75.10
2023-01-22T15:17:57.254Z,75.10
2023-01-22T15:20:24.979Z,75.90
2023-01-22T15:22:52.409Z,75.10
2023-01-22T15:25:19.646Z,75.10
2023-01-22T15:27:46.725Z,75.10
2023-01-22T15:30:15.107Z,75.10
2023-01-22T15:32:42.339Z,75.00
2023-01-22T15:35:09.872Z,75.00
2023-01-22T15:37:37.169Z,75.00
2023-01-22T15:40:05.429Z,75.00
2023-01-22T15:42:35.559Z,75.00
2023-01-22T15:45:04.671Z,75.00
2023-01-22T15:47:31.768Z,74.90
2023-01-22T15:49:59.134Z,74.80
2023-01-22T15:52:26.169Z,75.00
2023-01-22T15:54:53.846Z,75.00
2023-01-22T15:57:21.146Z,75.00
2023-01-22T15:59:48.666Z,75.00
2023-01-22T16:02:15.787Z,75.00
2023-01-22T16:04:43.531Z,75.00
2023-01-22T16:07:10.599Z,75.00
2023-01-22T16:09:39.071Z,75.00
2023-01-22T16:12:06.656Z,75.00
2023-01-22T16:14:33.882Z,75.00
2023-01-22T16:17:02.246Z,75.00
2023-01-22T16:19:29.415Z,75.00
2023-01-22T16:21:56.537Z,75.00
2023-01-22T16:24:23.607Z,75.00
2023-01-22T16:26:50.597Z,75.00
2023-01-22T16:29:17.923Z,75.00
2023-01-22T16:31:45.019Z,75.00
2023-01-22T16:34:21.748Z,75.00
2023-01-22T16:36:51.707Z,75.00
2023-01-22T16:39:22.939Z,75.00
2023-01-22T16:41:52.193Z,75.10
2023-01-22T16:44:26.468Z,75.00
2023-01-22T16:46:58.062Z,75.20
2023-01-22T16:49:32.302Z,75.10
2023-01-22T16:52:16.725Z,75.10
2023-01-22T16:54:49.291Z,75.10
2023-01-22T16:57:16.457Z,75.00
2023-01-22T16:59:43.925Z,75.10
2023-01-22T17:02:16.940Z,75.00
2023-01-22T17:04:44.959Z,75.00
2023-01-22T17:07:27.311Z,75.10
2023-01-22T17:09:59.598Z,75.10
2023-01-22T17:12:27.482Z,75.10
2023-01-22T17:14:54.581Z,75.10
2023-01-22T17:17:21.808Z,75.20
2023-01-22T17:19:49.005Z,75.30
2023-01-22T17:22:16.271Z,75.40
2023-01-22T17:24:43.902Z,75.40
2023-01-22T17:27:18.503Z,75.40
2023-01-22T17:29:46.133Z,75.40
2023-01-22T17:32:13.244Z,75.40
2023-01-22T17:34:41.961Z,75.50
2023-01-22T17:37:13.564Z,75.50
2023-01-22T17:39:42.800Z,75.50
2023-01-22T17:42:09.909Z,75.50
2023-01-22T17:44:36.896Z,75.60
2023-01-22T17:47:05.858Z,75.50
2023-01-22T17:49:35.105Z,75.50
2023-01-22T17:52:02.968Z,75.50
2023-01-22T17:54:30.198Z,75.40
2023-01-22T17:56:57.541Z,75.30
2023-01-22T17:59:25.465Z,75.30
2023-01-22T18:01:52.675Z,75.20
2023-01-22T18:04:19.804Z,75.30
2023-01-22T18:06:47.302Z,75.30
2023-01-22T18:09:14.617Z,75.30
2023-01-22T18:11:42.900Z,75.40
2023-01-22T18:14:21.688Z,75.50
2023-01-22T18:16:50.417Z,75.50
2023-01-22T18:19:18.869Z,75.60
2023-01-22T18:21:46.347Z,75.80
2023-01-22T18:24:14.224Z,75.90
2023-01-22T18:26:41.707Z,75.90
2023-01-22T18:29:10.426Z,76.00
2023-01-22T18:31:38.177Z,76.00
2023-01-22T18:34:07.103Z,76.00
2023-01-22T18:36:38.302Z,76.00
2023-01-22T18:39:13.398Z,76.10
2023-01-22T18:41:40.984Z,76.00
2023-01-22T18:44:09.686Z,76.10
2023-01-22T18:46:39.333Z,76.10
2023-01-22T18:49:16.263Z,76.10
2023-01-22T18:51:45.623Z,76.10
2023-01-22T18:54:13.671Z,76.10
2023-01-22T18:56:41.583Z,76.10
2023-01-22T18:59:09.363Z,76.20
2023-01-22T19:01:38.773Z,76.10
2023-01-22T19:04:09.659Z,76.10
2023-01-22T19:06:38.947Z,76.10
2023-01-22T19:09:14.323Z,76.10
2023-01-22T19:11:47.150Z,76.20
2023-01-22T19:14:17.600Z,76.20
2023-01-22T19:16:48.471Z,76.20
2023-01-22T19:19:16.971Z,76.20
2023-01-22T19:21:47.616Z,76.20
2023-01-22T19:24:18.600Z,76.30
2023-01-22T19:26:46.787Z,76.20
2023-01-22T19:29:18.262Z,76.20
2023-01-22T19:31:51.831Z,76.30
2023-01-22T19:34:25.463Z,76.20
2023-01-22T19:36:55.858Z,76.20
2023-01-22T19:39:25.398Z,76.30
2023-01-22T19:41:52.723Z,76.30
2023-01-22T19:44:20.620Z,76.30
2023-01-22T19:46:48.106Z,76.40
2023-01-22T19:49:15.109Z,76.40
2023-01-22T19:51:42.174Z,76.30
2023-01-22T19:54:10.192Z,76.40
2023-01-22T19:56:39.796Z,76.30
2023-01-22T19:59:12.665Z,76.30
2023-01-22T20:01:39.777Z,76.40
2023-01-22T20:04:14.429Z,77.20
2023-01-22T20:06:45.142Z,77.10
2023-01-22T20:09:13.237Z,76.30
2023-01-22T20:11:40.808Z,76.30
2023-01-22T20:14:07.908Z,76.30
2023-01-22T20:16:34.858Z,76.30
2023-01-22T20:19:01.960Z,76.30
2023-01-22T20:21:29.903Z,76.30
2023-01-22T20:23:56.938Z,76.20
2023-01-22T20:26:24.200Z,76.20
2023-01-22T20:28:51.560Z,76.20
2023-01-22T20:31:23.425Z,76.20
2023-01-22T20:33:57.017Z,76.20
2023-01-22T20:36:30.307Z,76.20
2023-01-22T20:38:57.993Z,76.20
2023-01-22T20:41:27.482Z,76.30
2023-01-22T20:43:54.935Z,76.30
2023-01-22T20:46:25.118Z,76.30
2023-01-22T20:48:53.465Z,76.30
2023-01-22T20:51:24.674Z,76.30
2023-01-22T20:53:54.802Z,76.30
2023-01-22T20:56:28.345Z,76.20
2023-01-22T20:58:58.854Z,76.20
2023-01-22T21:01:26.627Z,76.30
2023-01-22T21:03:56.705Z,77.20
2023-01-22T21:06:25.828Z,76.30
2023-01-22T21:08:56.627Z,76.30
2023-01-22T21:11:25.039Z,76.30
2023-01-22T21:13:53.649Z,76.30
2023-01-22T21:16:27.630Z,76.30
2023-01-22T21:19:07.449Z,76.40
2023-01-22T21:21:35.397Z,76.40
2023-01-22T21:24:03.067Z,76.30
2023-01-22T21:26:32.586Z,76.40
2023-01-22T21:29:11.349Z,76.30
2023-01-22T21:31:38.836Z,76.40
2023-01-22T21:34:08.515Z,76.50
2023-01-22T21:36:42.634Z,76.70
2023-01-22T21:39:15.711Z,76.80
2023-01-22T21:41:43.775Z,76.80
2023-01-22T21:44:32.119Z,76.90
2023-01-22T21:46:59.544Z,76.90
2023-01-22T21:49:26.950Z,76.80
2023-01-22T21:51:57.987Z,76.90
2023-01-22T21:54:29.494Z,76.90
2023-01-22T21:56:57.526Z,76.80
2023-01-22T21:59:24.899Z,76.80
2023-01-22T22:01:54.430Z,76.80
2023-01-22T22:04:24.384Z,76.80
2023-01-22T22:06:52.069Z,76.80
2023-01-22T22:09:24.474Z,76.80
2023-01-22T22:11:55.077Z,76.70
2023-01-22T22:14:22.258Z,76.70
2023-01-22T22:16:49.996Z,76.60
2023-01-22T22:19:18.433Z,76.60
2023-01-22T22:21:45.860Z,76.60
2023-01-22T22:24:13.676Z,76.60
2023-01-22T22:26:41.219Z,76.60
2023-01-22T22:29:09.088Z,76.60
2023-01-22T22:31:37.181Z,76.50
2023-01-22T22:34:04.598Z,76.50
2023-01-22T22:36:32.981Z,76.50
2023-01-22T22:39:01.435Z,76.40
2023-01-22T22:41:32.769Z,76.30
2023-01-22T22:44:00.175Z,76.30
2023-01-22T22:46:31.651Z,76.30
2023-01-22T22:49:01.147Z,76.40
2023-01-22T22:51:31.232Z,76.40
2023-01-22T22:54:02.279Z,76.50
2023-01-22T22:56:30.439Z,76.50
2023-01-22T22:59:00.791Z,77.30
2023-01-22T23:01:30.242Z,76.40
2023-01-22T23:03:57.660Z,76.40
2023-01-22T23:06:29.831Z,76.30
2023-01-22T23:09:11.777Z,76.30
2023-01-22T23:11:39.192Z,76.30
2023-01-22T23:14:06.789Z,76.20
2023-01-22T23:16:37.952Z,76.10
2023-01-22T23:19:18.445Z,76.00
2023-01-22T23:21:46.456Z,76.10
2023-01-22T23:24:15.051Z,76.10
2023-01-22T23:26:44.656Z,76.20
2023-01-22T23:29:16.064Z,76.10
2023-01-22T23:31:43.489Z,76.20
2023-01-22T23:34:17.153Z,76.20
2023-01-22T23:36:46.859Z,76.20
2023-01-22T23:39:16.814Z,76.30
2023-01-22T23:41:44.603Z,76.30
2023-01-22T23:44:12.074Z,76.40
2023-01-22T23:46:39.336Z,76.40
2023-01-22T23:49:06.379Z,76.40
2023-01-22T23:51:33.818Z,76.40
2023-01-22T23:54:01.540Z,76.40
2023-01-22T23:56:32.405Z,76.40
2023-01-22T23:59:00.170Z,76.30
